Latest Weather Observations for Goulburn Airport

IDN60901

Issued at 6:31 am EST Thursday 16 August 2018 (issued every 10 minutes, with the page automatically refreshed every 10 minutes)

About weather observations | Map of Canberra area stations | Latest observations for Canberra area | Other Formats
Station Details ID: 070330 Name: GOULBURN AIRPORT AWS Lat: -34.81 Lon: 149.73 Height: 640.0 m
Data from the previous 72 hours. | See also: Recent months at Goulburn Airport
Date/Time
EST
Temp
°C
App
Temp
°C
Dew
Point
°C
Rel
Hum
%
Delta-T
°C
Wind Press
QNH
hPa
Press
MSL
hPa
Rain since
9am
mm
Dir  Spd
km/h
Gust
km/h
Spd
kts
Gust
kts
16/06:30am 6.4 -0.5 2.7 77 1.6 WNW 28 39 15 21 1010.3 1011.0 0.0
16/06:00am 6.5 0.2 3.7 82 1.2 WNW 26 32 14 17 1010.2 1010.9 0.0
16/05:30am 6.5 0.6 3.8 83 1.2 WNW 24 33 13 18 1010.0 1010.6 0.0
16/05:00am 7.1 0.4 3.9 80 1.4 WNW 28 37 15 20 1009.7 1010.4 0.0
16/04:30am 7.4 1.4 3.6 77 1.7 WNW 24 33 13 18 1009.7 1010.4 0.0
16/04:00am 7.2 1.9 3.1 75 1.8 WNW 20 28 11 15 1009.5 1010.2 0.0
16/03:30am 7.9 1.8 2.8 70 2.2 WNW 24 33 13 18 1009.4 1010.1 0.0
16/03:00am 8.3 1.7 1.9 64 2.8 WNW 26 33 14 18 1009.3 1010.0 0.0
16/02:30am 9.0 1.9 1.2 58 3.3 WNW 28 41 15 22 1009.2 1009.9 0.0
16/02:00am 9.7 1.7 0.6 53 3.9 WNW 32 44 17 24 1009.2 1009.9 0.0
16/01:30am 10.3 2.1 0.3 50 4.2 WNW 33 43 18 23 1009.1 1009.8 0.0
16/01:00am 10.9 1.8 -0.5 45 4.8 WNW 37 48 20 26 1009.1 1009.8 0.0
16/12:30am 11.5 2.4 -0.9 42 5.2 WNW 37 50 20 27 1009.0 1009.7 0.0
16/12:00am 12.1 2.8 -1.8 38 5.7 WNW 37 54 20 29 1009.0 1009.7 0.0
 
Date/Time
EST
Temp
°C
App
Temp
°C
Dew
Point
°C
Rel
Hum
%
Delta-T
°C
Wind Press
QNH
hPa
Press
MSL
hPa
Rain since
9am
mm
Dir  Spd
km/h
Gust
km/h
Spd
kts
Gust
kts
15/11:49pm 12.4 4.1 -1.9 37 5.9 WNW 32 52 17 28 1009.0 1009.7 0.0
15/11:30pm 12.6 2.9 -2.1 36 6.0 NW 39 54 21 29 1008.7 1009.3 0.0
15/11:24pm 12.6 3.7 -2.1 36 6.0 NW 35 54 19 29 1008.7 1009.3 0.0
15/11:00pm 12.3 3.4 -1.6 38 5.8 NW 35 46 19 25 1008.9 1009.6 0.0
15/10:30pm 12.5 3.3 -1.4 38 5.8 NW 37 50 20 27 1009.0 1009.7 0.0
15/10:00pm 12.5 3.7 -1.1 39 5.7 NW 35 52 19 28 1009.2 1009.9 0.0
15/09:30pm 12.7 3.1 -1.2 38 5.8 NW 39 48 21 26 1009.2 1009.9 0.0
15/09:00pm 12.9 3.0 -1.1 38 5.9 NW 41 59 22 32 1009.0 1009.7 0.0
15/08:51pm 12.9 3.4 -1.1 38 5.9 NW 39 57 21 31 1009.1 1009.8 0.0
15/08:30pm 12.6 3.5 -0.6 40 5.6 NW 37 48 20 26 1009.2 1009.9 0.0
15/08:14pm 12.9 4.2 -0.4 40 5.7 NW 35 57 19 31 1009.3 1010.0 0.0
15/08:00pm 12.8 3.8 -0.1 41 5.5 NW 37 52 20 28 1009.4 1010.1 0.0
15/07:30pm 12.4 4.1 -0.1 42 5.3 NW 33 46 18 25 1009.5 1010.2 0.0
15/07:00pm 12.7 4.0 -0.2 41 5.5 NW 35 46 19 25 1009.6 1010.3 0.0
15/06:30pm 13.0 3.9 -0.3 40 5.7 NW 37 50 20 27 1009.7 1010.4 0.0
15/06:00pm 12.7 4.7 0.1 42 5.4 NW 32 44 17 24 1010.2 1010.9 0.0
15/05:30pm 12.6 5.0 0.4 43 5.3 NW 30 43 16 23 1010.4 1011.1 0.0
15/05:00pm 13.3 4.7 0.3 41 5.7 NW 35 48 19 26 1010.3 1011.0 0.0
15/04:30pm 13.7 4.8 0.7 41 5.7 NW 37 48 20 26 1010.4 1011.1 0.0
15/04:00pm 14.0 4.4 1.0 41 5.8 NW 41 54 22 29 1010.3 1011.0 0.0
15/03:30pm 14.5 4.4 0.4 38 6.2 WNW 43 61 23 33 1010.8 1011.5 0.0
15/03:01pm 14.9 5.1 -0.4 35 6.6 NW 41 65 22 35 1010.7 1011.4 0.0
15/03:00pm 15.3 5.6 0.3 36 6.6 WNW 41 57 22 31 1010.7 1011.4 0.0
15/02:50pm 14.5 5.2 0.4 38 6.2 WNW 39 57 21 31 1010.9 1011.6 0.0
15/02:30pm 13.9 3.8 0.5 40 5.9 WNW 43 57 23 31 1011.0 1011.7 0.0
15/02:00pm 14.5 4.6 1.8 42 5.8 WNW 43 57 23 31 1011.2 1011.9 0.0
15/01:30pm 16.0 4.7 1.0 36 6.8 WNW 50 69 27 37 1010.9 1011.6 0.0
15/01:04pm 15.4 3.9 -0.4 34 6.9 WNW 50 69 27 37 1011.1 1011.8 0.0
15/01:00pm 15.5 4.4 0.1 35 6.8 NW 48 61 26 33 1011.1 1011.8 0.0
15/12:30pm 15.4 3.5 0.0 35 6.8 NW 52 69 28 37 1011.6 1012.3 0.0
15/12:17pm 15.8 4.6 1.9 39 6.4 NW 50 69 27 37 1011.9 1012.6 0.0
15/12:00pm 15.1 3.8 0.9 38 6.4 NW 50 67 27 36 1012.0 1012.7 0.0
15/11:30am 14.7 3.5 1.9 42 5.8 NW 50 69 27 37 1012.5 1013.2 0.0
15/11:19am 14.5 4.1 1.8 42 5.8 NW 46 65 25 35 1012.6 1013.3 0.0
15/11:00am 13.6 3.1 1.6 44 5.4 NW 46 63 25 34 1013.1 1013.9 0.0
15/10:41am 13.3 2.7 1.0 43 5.4 NW 46 65 25 35 1013.7 1014.4 0.0
15/10:30am 13.2 3.0 0.9 43 5.4 NW 44 61 24 33 1013.9 1014.6 0.0
15/10:13am 13.3 3.6 0.7 42 5.5 NW 41 59 22 32 1014.1 1014.9 0.0
15/10:00am 12.9 2.9 1.0 44 5.2 NW 43 59 23 32 1014.3 1015.1 0.0
15/09:44am 12.7 3.0 0.8 44 5.2 WNW 41 59 22 32 1014.6 1015.4 0.0
15/09:30am 12.6 2.4 1.0 45 5.1 NW 44 61 24 33 1014.9 1015.6 0.0
15/09:18am 12.5 2.9 0.9 45 5.1 NW 41 59 22 32 1015.0 1015.7 0.0
15/09:00am 11.5 2.2 0.9 48 4.6 NW 39 54 21 29 1015.1 1015.8 0.0
15/08:30am 10.3 1.5 1.2 53 3.9 NW 37 50 20 27 1015.3 1016.0 0.0
15/08:00am 9.2 1.4 1.9 60 3.2 NW 32 48 17 26 1015.4 1016.1 0.0
15/07:30am 8.3 1.3 1.9 64 2.8 NW 28 39 15 21 1015.6 1016.4 0.0
15/07:00am 7.5 0.9 2.0 68 2.4 NW 26 33 14 18 1015.4 1016.1 0.0
15/06:30am 7.3 0.7 2.2 70 2.2 NW 26 35 14 19 1015.1 1015.8 0.0
15/06:00am 7.0 0.4 2.3 72 2.0 NW 26 39 14 21 1014.9 1015.6 0.0
15/05:30am 7.2 0.7 2.5 72 2.0 NW 26 35 14 19 1015.0 1015.7 0.0
15/05:00am 7.5 1.1 3.0 73 2.0 NW 26 35 14 19 1014.9 1015.6 0.0
15/04:30am 7.0 1.7 2.9 75 1.8 WNW 20 28 11 15 1015.4 1016.1 0.0
15/04:00am 7.2 1.5 3.1 75 1.8 WNW 22 32 12 17 1015.6 1016.4 0.0
15/03:30am 6.4 1.7 3.0 79 1.5 NW 17 22 9 12 1016.1 1016.9 0.0
15/03:00am 5.4 1.7 2.6 82 1.2 NNW 11 15 6 8 1016.6 1017.3 0.0
15/02:30am 6.0 1.6 2.8 80 1.4 NNW 15 20 8 11 1017.0 1017.8 0.0
15/02:00am 6.1 1.7 2.9 80 1.4 NNW 15 20 8 11 1017.3 1018.1 0.0
15/01:30am 6.8 2.2 3.6 80 1.4 NW 17 26 9 14 1017.8 1018.6 0.0
15/01:00am 6.0 2.5 3.7 85 1.0 WNW 11 20 6 11 1017.9 1018.7 0.0
15/12:30am 6.1 2.3 3.9 86 1.0 NW 13 20 7 11 1018.0 1018.8 0.0
15/12:00am 5.6 2.6 3.9 89 0.7 NNW 9 13 5 7 1018.4 1019.2 0.0
 
Date/Time
EST
Temp
°C
App
Temp
°C
Dew
Point
°C
Rel
Hum
%
Delta-T
°C
Wind Press
QNH
hPa
Press
MSL
hPa
Rain since
9am
mm
Dir  Spd
km/h
Gust
km/h
Spd
kts
Gust
kts
14/11:30pm 4.7 0.8 3.2 90 0.6 NNW 13 15 7 8 1018.8 1019.6 0.0
14/11:00pm 5.1 1.2 3.6 90 0.7 NNW 13 17 7 9 1019.2 1020.0 0.0
14/10:30pm 5.5 1.3 4.0 90 0.7 NNW 15 17 8 9 1019.6 1020.5 0.0
14/10:00pm 6.0 2.3 4.2 88 0.8 NW 13 17 7 9 1020.0 1020.8 0.0
14/09:30pm 6.4 2.3 4.2 86 1.0 NW 15 17 8 9 1020.2 1021.0 0.0
14/09:00pm 7.3 2.5 4.8 84 1.1 NW 19 22 10 12 1020.3 1021.1 0.0
14/08:30pm 7.3 2.0 4.8 84 1.1 NW 22 26 12 14 1020.3 1021.1 0.0
14/08:00pm 8.1 1.6 4.9 80 1.5 WNW 28 33 15 18 1020.2 1021.0 0.0
14/07:30pm 8.3 1.4 4.7 78 1.7 WNW 30 39 16 21 1020.0 1020.8 0.0
14/07:00pm 8.5 1.6 4.7 77 1.7 WNW 30 37 16 20 1020.0 1020.8 0.0
14/06:30pm 9.3 3.3 5.1 75 2.0 WNW 26 37 14 20 1019.9 1020.7 0.0
14/06:00pm 9.6 3.5 4.6 71 2.3 NW 26 37 14 20 1019.6 1020.5 0.0
14/05:30pm 10.4 3.1 4.5 67 2.7 WNW 32 41 17 22 1019.6 1020.5 0.0
14/05:00pm 11.4 4.2 4.8 64 3.1 WNW 32 39 17 21 1019.3 1020.1 0.0
14/04:30pm 12.2 5.3 4.7 60 3.6 WNW 30 37 16 20 1019.5 1020.4 0.0
14/04:00pm 12.8 5.3 4.5 57 3.9 WNW 33 41 18 22 1019.6 1020.5 0.0
14/03:30pm 13.4 5.9 4.3 54 4.3 WNW 33 46 18 25 1019.6 1020.5 0.0
14/03:00pm 13.8 7.2 4.1 52 4.6 WNW 28 35 15 19 1020.2 1021.0 0.0
14/02:30pm 13.6 6.9 3.9 52 4.6 WNW 28 39 15 21 1020.5 1021.3 0.0
14/02:00pm 13.5 7.2 3.6 51 4.6 WNW 26 33 14 18 1020.9 1021.8 0.0
14/01:30pm 13.5 6.4 3.8 52 4.6 WNW 30 39 16 21 1021.1 1022.0 0.0
14/01:00pm 13.4 6.0 3.8 52 4.5 WNW 32 43 17 23 1021.4 1022.3 0.0
14/12:30pm 12.8 4.8 3.7 54 4.2 WNW 35 46 19 25 1022.0 1022.8 0.0
14/12:00pm 12.1 3.6 3.3 55 4.0 WNW 37 46 20 25 1022.5 1023.4 0.0
14/11:30am 12.1 4.7 3.9 57 3.8 WNW 32 41 17 22 1023.1 1024.0 0.0
14/11:00am 11.5 4.4 3.5 58 3.7 WNW 30 41 16 22 1023.8 1024.7 0.0
14/10:30am 10.7 3.2 3.5 61 3.3 WNW 32 44 17 24 1024.0 1024.9 0.0
14/10:00am 10.0 2.9 3.3 63 3.0 WNW 30 39 16 21 1024.3 1025.2 0.0
14/09:30am 9.6 2.9 3.8 67 2.6 WNW 28 35 15 19 1024.4 1025.3 0.0
14/09:00am 8.9 2.1 3.3 68 2.5 WNW 28 39 15 21 1024.5 1025.4 0.0
14/08:30am 7.7 2.4 3.2 73 2.0 NW 20 26 11 14 1024.4 1025.3 0.0
14/08:00am 6.8 1.7 3.1 77 1.6 NW 19 28 10 15 1024.3 1025.2 0.0
14/07:30am 5.9 0.5 2.5 79 1.4 NW 20 30 11 16 1024.1 1025.0 0.0
14/07:00am 4.9 -1.3 2.3 83 1.1 WNW 24 30 13 16 1023.7 1024.6 0.0
14/06:30am 4.8 1.0 2.0 82 1.2 NNW 11 17 6 9 1023.6 1024.5 0.0
14/06:00am 5.3 -0.4 2.7 83 1.1 WNW 22 33 12 18 1023.3 1024.1 0.0
14/05:30am 4.7 -1.5 2.2 84 1.0 W 24 37 13 20 1023.4 1024.2 0.0
14/05:00am 4.7 -0.2 2.2 84 1.0 WNW 17 28 9 15 1023.5 1024.4 0.0
14/04:30am 4.9 -0.5 2.6 85 1.0 WNW 20 30 11 16 1023.0 1023.9 0.0
14/04:00am 4.7 -0.1 2.4 85 1.0 WNW 17 26 9 14 1023.3 1024.1 0.0
14/03:30am 4.5 0.1 2.5 87 0.8 W 15 20 8 11 1022.9 1023.8 0.0
14/03:18am 4.3 1.0 2.2 86 0.9 NW 9 15 5 8 1022.9 1023.8 0.0
14/03:00am 4.2 0.5 2.1 86 0.9 NNW 11 19 6 10 1023.0 1023.9 0.0
14/02:40am 4.3 1.9 2.3 87 0.8 NW 4 13 2 7 1023.3 1024.1 0.0
14/02:30am 4.3 0.2 2.2 86 0.9 WNW 13 24 7 13 1023.3 1024.1 0.0
14/02:19am 4.8 -0.6 2.7 86 0.9 WNW 20 28 11 15 1023.1 1024.0 0.0
14/02:03am 5.0 0.3 3.0 87 0.9 WNW 17 28 9 15 1023.3 1024.1 0.0
14/02:00am 4.8 0.0 2.8 87 0.8 WNW 17 20 9 11 1023.3 1024.1 0.0
14/01:30am 5.5 -1.7 3.0 84 1.1 WNW 30 39 16 21 1023.3 1024.1 0.0
14/01:00am 5.2 -0.5 3.1 86 0.9 WNW 22 30 12 16 1023.7 1024.6 0.0
14/12:30am 5.5 -0.5 3.3 86 1.0 WNW 24 35 13 19 1023.8 1024.7 0.0
14/12:00am 5.5 -0.9 3.2 85 1.0 WNW 26 32 14 17 1023.6 1024.5 0.0
 
Date/Time
EST
Temp
°C
App
Temp
°C
Dew
Point
°C
Rel
Hum
%
Delta-T
°C
Wind Press
QNH
hPa
Press
MSL
hPa
Rain since
9am
mm
Dir  Spd
km/h
Gust
km/h
Spd
kts
Gust
kts
13/11:43pm 5.8 -2.6 3.5 85 1.0 WNW 37 48 20 26 1023.5 1024.4 0.0
13/11:30pm 6.0 -2.1 3.5 84 1.1 WNW 35 48 19 26 1023.4 1024.2 0.0
13/11:26pm 6.2 -0.9 3.7 84 1.1 WNW 30 48 16 26 1023.5 1024.4 0.0
13/11:00pm 6.4 0.5 3.7 83 1.2 WNW 24 35 13 19 1023.9 1024.8 0.0
13/10:35pm 6.6 0.3 3.9 83 1.2 WNW 26 35 14 19 1023.9 1024.8 0.0
13/10:30pm 6.5 0.2 3.8 83 1.2 WNW 26 35 14 19 1024.0 1024.9 0.0
13/10:07pm 6.6 -0.1 3.8 82 1.2 WNW 28 39 15 21 1023.8 1024.7 0.0
13/10:00pm 6.8 0.5 3.9 82 1.3 WNW 26 37 14 20 1023.9 1024.8 0.0
13/09:31pm 6.8 1.7 3.9 82 1.3 WNW 20 28 11 15 1024.1 1025.0 0.0
13/09:30pm 6.9 1.8 4.0 82 1.3 WNW 20 28 11 15 1024.0 1024.9 0.0
13/09:00pm 7.3 1.5 4.3 81 1.3 WNW 24 35 13 19 1024.2 1025.1 0.0
13/08:30pm 7.2 1.7 4.2 81 1.3 WNW 22 32 12 17 1023.9 1024.8 0.0
13/08:00pm 7.2 0.2 4.3 82 1.3 WNW 30 37 16 20 1023.5 1024.4 0.0
13/07:30pm 6.9 -0.1 4.2 83 1.2 WNW 30 43 16 23 1023.3 1024.1 0.0
13/07:00pm 7.0 0.0 4.0 81 1.3 WNW 30 41 16 22 1023.0 1023.9 0.0
13/06:30pm 7.2 1.3 4.0 80 1.4 WNW 24 33 13 18 1023.0 1023.9 0.0
13/06:00pm 7.7 1.8 4.1 78 1.6 WNW 24 33 13 18 1022.9 1023.8 0.0
13/05:30pm 7.8 0.8 4.2 78 1.6 WNW 30 41 16 22 1022.7 1023.6 0.0
13/05:00pm 8.2 0.2 3.7 73 2.0 W 35 44 19 24 1022.3 1023.2 0.0
13/04:30pm 9.1 -0.1 3.7 69 2.4 W 41 54 22 29 1021.9 1022.7 0.0
13/04:00pm 9.0 -0.2 3.4 68 2.5 WNW 41 59 22 32 1021.9 1022.7 0.0
13/03:59pm 9.2 0.0 3.4 67 2.6 WNW 41 59 22 32 1021.9 1022.7 0.0
13/03:30pm 9.7 0.2 3.7 66 2.7 WNW 43 56 23 30 1021.8 1022.6 0.0
13/03:00pm 10.1 -0.4 3.8 65 2.9 W 48 61 26 33 1021.1 1022.0 0.0
13/02:30pm 11.0 1.5 4.0 62 3.2 W 43 57 23 31 1021.2 1022.1 0.0
13/02:00pm 10.5 1.8 4.0 64 3.0 W 39 54 21 29 1021.1 1022.0 0.0
13/01:33pm 10.8 1.3 3.8 62 3.2 W 43 61 23 33 1021.7 1022.5 0.0
13/01:30pm 10.6 0.9 4.1 64 3.0 W 44 61 24 33 1021.6 1022.4 0.0
13/01:25pm 10.1 0.5 3.4 63 3.0 W 43 61 23 33 1021.1 1022.0 0.0
13/01:00pm 9.6 1.1 3.1 64 2.9 W 37 48 20 26 1021.8 1022.6 0.0
13/12:40pm 9.7 2.0 3.4 65 2.8 WNW 33 52 18 28 1021.9 1022.7 0.0
13/12:30pm 9.3 0.8 3.3 66 2.7 WNW 37 50 20 27 1021.9 1022.7 0.0
13/12:00pm 10.3 2.3 4.0 65 2.9 WNW 35 44 19 24 1022.6 1023.5 0.0
13/11:30am 10.6 2.7 4.1 64 3.0 W 35 44 19 24 1023.0 1023.9 0.0
13/11:00am 9.5 -0.1 3.3 65 2.8 W 43 56 23 30 1023.0 1023.9 0.0
13/10:31am 8.4 -2.2 3.3 70 2.3 W 48 61 26 33 1022.8 1023.7 0.0
13/10:30am 8.7 -1.4 3.7 71 2.3 W 46 61 25 33 1022.8 1023.7 0.0
13/10:00am 7.6 -0.5 3.3 74 1.9 W 35 50 19 27 1022.7 1023.6 0.0
13/09:30am 7.0 -1.9 3.3 77 1.6 WNW 39 50 21 27 1022.2 1023.1 0.0
13/09:00am 5.6 -0.4 3.1 84 1.1 W 24 44 13 24 1022.2 1023.1 0.0
13/08:30am 5.4 -1.0 3.1 85 1.0 WNW 26 39 14 21 1021.7 1022.5 0.0
13/08:11am 5.3 -1.9 2.8 84 1.1 WNW 30 48 16 26 1021.3 1022.2 0.0
13/08:10am 5.3 -2.3 2.8 84 1.1 WNW 32 48 17 26 1021.2 1022.1 0.0
13/08:00am 5.2 -3.4 2.6 83 1.1 W 37 56 20 30 1021.2 1022.1 0.0
13/07:40am 5.1 -3.1 2.5 83 1.1 WNW 35 59 19 32 1020.7 1021.5 0.0
13/07:38am 5.0 -3.3 2.4 83 1.1 WNW 35 46 19 25 1020.9 1021.8 0.0
13/07:30am 4.9 -3.0 2.3 83 1.1 WNW 33 48 18 26 1021.1 1022.0 0.0
13/07:00am 4.7 -0.7 2.2 84 1.0 WNW 20 39 11 21 1021.2 1022.1 0.0
13/06:50am 4.7 -2.3 2.2 84 1.0 WNW 28 48 15 26 1020.9 1021.8 0.0

Latest Capital City Observations: Canberra | Sydney | Melbourne | Brisbane | Adelaide | Perth | Hobart | Darwin

Other Formats:

Comma delimited format used in spreadsheet applications
http://www.bom.gov.au/fwo/IDN60903/IDN60903.95716.axf

JavaScript Object Notation format (JSON) in row-major order
http://www.bom.gov.au/fwo/IDN60903/IDN60903.95716.json